Etusivu
METAR-TAF:

METAR-TAF

Lentoasemat :

Koror, Babeldaob, Palau

Leveyspiiri: 07-22N, Pituuspiiri: 134-32E, korkeus merenpinnasta: 54 m

Tämänhetkinen sää

Tämä raportti tehtiin 57 minuuttia sitten, kello 09.50 UTC
Tuuli 4 kn idästä/koillisesta
Lämpötila 27°C
Kosteus 79%
Ilmanpaine 1009 hPa
Näkyvyys: 22.5 km
Hajanaisia pilviä 1600 ft:n korkeudessa
Hajanaisia pilviä 12000 ft:n korkeudessa
Hajonneita pilviä 30000 ft:n korkeudessa

METAR: PTRO 070950Z 07004KT 14SM SCT016 SCT120 BKN300 27/23 A2980

Aika: 19:47 (10:47 UTC)

Sääennuste

Tämä raportti tehtiin 4 tuntia ja 55 minuuttia sitten, kello 05.52 UTC
Ennuste voimassa 07. päivästä klo 06 UTC - 08. päivään klo 06 UTC
Tuuli 10 kn idästä
Näkyvyys: 10 km
Hajanaisia pilviä 1600 ft:n korkeudessa
Hajonneita pilviä 12000 ft:n korkeudessa
sadekuuroja näköpiirissä

TAF: PTRO 070552Z 0706/0806 08010KT P6SM VCSH SCT016 BKN120

Säähavainnot ja -ennusteet yli 4000 lentoasemalta (METAR- ja TAF-raportit).

Käytössä olevat sääasemat on merkitty karttaan keltaisilla ja punaisilla pisteillä.

Aseta hiiri pisteen päälle nähdäksesi sääaseman nimen.

Klikkaa sitten nähdäksesi säähavainnot ja -ennusteet.

Kartan vaihtaminen: klikkaa mustalla rastilla varustettuja vihreitä pisteitä, niin voit zoomata sisään; viivalla varustettua vihreää pistettä, niin voit zoomata ulos tai vihreitä nuolia, niin pääset viereisille kartoille.


METAR-TAF: